Tire Hill, Pennsylvania
Current Conditions -  °F | °C
As of 10:06 AM on Sunday 21 Dec 2014 (Local Time) from KJST Reporting Station
Overcast Overcast  
Wind Chill: 24°   Ceiling: 1400
Heat Index: 24°   Visibility: 10mi
Dew Point: 19°   Wind: 3mph
Humidity: 81%   Direction: 290°WNW
Pressure: 30.24"   Gusts: NA
Location:  40.27°N, 78.92°W
Report Text: KJST 211506Z AUTO 29003KT 10SM OVC014 M04/M07 A3024 RMK AO2 T10441072
Loading
Personal Weather Stations






























Interactive Weather Map New forecast layout! Learn more

10-Day Weather Forecast

Advertisements
Track Severe Weather on mobile